Data for 04/14/2010

Time Sea-Level Adjusted Pressure Absolute Pressure Temperature Relative Humidity Dew Point   
(mb) (inHg) (mb) (inHg) (C) (F) (%) (C) (F)
00:05 1010 29.83 839 24.78 3.4 38.2 62 -3.2 26.3
00:10 1010 29.83 839 24.78 3.5 38.2 62 -3.1 26.4
00:15 1010 29.83 839 24.78 3.6 38.4 60 -3.6 25.6
00:20 1010 29.83 839 24.78 3.7 38.6 60 -3.3 26
00:25 1010 29.83 839 24.78 3.7 38.6 60 -3.3 26
00:30 1010 29.83 839 24.78 3.6 38.5 59 -3.6 25.6
00:35 1010 29.83 839 24.78 3.7 38.6 60 -3.3 26.1
00:40 1010 29.83 839 24.78 3.6 38.6 60 -3.5 25.7
00:45 1010 29.83 839 24.78 3.8 38.8 59 -3.6 25.6
00:50 1010 29.83 839 24.78 3.8 38.8 59 -3.6 25.6
00:55 1010 29.83 839 24.78 3.8 38.8 60 -3.3 26.1
01:00 1010 29.83 839 24.78 3.7 38.6 60 -3.4 25.8
01:05 1010 29.83 839 24.78 3.7 38.6 60 -3.3 26.1
01:10 1010 29.83 839 24.78 3.6 38.5 61 -3.2 26.2
01:15 1010 29.83 840 24.81 3.5 38.4 61 -3.2 26.2
01:20 1010 29.83 840 24.81 3.6 38.4 62 -3 26.6
01:25 1010 29.83 840 24.81 3.6 38.4 63 -2.9 26.8
01:30 1010 29.83 840 24.81 3.6 38.4 62 -3 26.6
01:35 1010 29.83 840 24.81 3.6 38.4 63 -2.9 26.8
01:40 1010 29.83 840 24.81 3.5 38.3 63 -2.8 26.9
01:45 1010 29.83 840 24.81 3.6 38.5 61 -3.1 26.5
01:50 1010 29.83 840 24.81 3.7 38.6 62 -3 26.6
01:55 1010 29.83 840 24.81 3.7 38.6 61 -3.1 26.4
02:00 1010 29.83 840 24.81 3.8 38.8 61 -3.1 26.4
02:05 1010 29.83 840 24.81 3.9 39 61 -2.9 26.7
02:10 1010 29.83 840 24.81 3.8 38.9 59 -3.4 25.9
02:15 1010 29.83 840 24.81 4 39.1 60 -3 26.5
02:20 1010 29.83 840 24.81 3.9 39 60 -3.2 26.3
02:25 1010 29.83 840 24.81 3.8 38.9 61 -3.1 26.5
02:30 1010 29.83 840 24.81 3.9 38.9 60 -3.2 26.2
02:35 1011 29.85 840 24.81 3.9 39 60 -3.2 26.3
02:40 1010 29.83 840 24.81 3.8 38.9 61 -3 26.6
02:45 1010 29.83 840 24.81 3.9 39 59 -3.4 25.9
02:50 1010 29.83 840 24.81 4 39.2 60 -3.1 26.5
02:55 1010 29.83 840 24.81 3.8 38.9 59 -3.4 25.8
03:00 1010 29.83 840 24.81 3.9 39 59 -3.3 26
03:05 1010 29.83 840 24.81 3.8 38.9 60 -3.3 26.1
03:10 1010 29.83 840 24.81 3.8 38.9 60 -3.2 26.3
03:15 1010 29.83 840 24.81 3.7 38.7 61 -3.2 26.2
03:20 1011 29.85 840 24.81 3.7 38.7 60 -3.2 26.2
03:25 1011 29.85 840 24.81 3.7 38.6 60 -3.4 25.9
03:30 1011 29.85 840 24.81 3.7 38.7 60 -3.3 26.1
03:35 1011 29.85 840 24.81 3.7 38.7 59 -3.4 25.8
03:40 1011 29.85 840 24.81 3.8 38.8 58 -3.7 25.4
03:45 1011 29.85 840 24.81 3.9 39 58 -3.7 25.3
03:50 1011 29.85 840 24.81 3.9 39 57 -3.8 25.2
03:55 1011 29.85 840 24.81 3.9 39 57 -3.8 25.2
04:00 1011 29.85 840 24.81 3.9 39.1 57 -3.8 25.1
04:05 1011 29.85 840 24.81 3.9 39 57 -3.9 25
04:10 1011 29.85 840 24.81 3.9 39 56 -4.1 24.6
04:15 1011 29.85 840 24.81 4 39.2 54 -4.5 23.9
04:20 1011 29.85 840 24.81 4.1 39.4 54 -4.3 24.2
04:25 1011 29.85 840 24.81 4.1 39.3 55 -4.2 24.4
04:30 1011 29.85 840 24.81 4.1 39.5 53 -4.6 23.6
04:35 1011 29.85 841 24.83 4.2 39.5 54 -4.3 24.2
04:40 1011 29.85 841 24.83 4.1 39.4 54 -4.4 24.1
04:45 1011 29.85 841 24.83 4.2 39.5 53 -4.6 23.7
04:50 1011 29.85 841 24.83 4.2 39.5 54 -4.4 24
04:55 1011 29.85 841 24.83 4 39.3 53 -4.6 23.7
05:00 1012 29.88 841 24.83 4.1 39.3 53 -4.6 23.6
05:05 1012 29.88 841 24.83 4 39.2 52 -4.9 23.3
05:10 1012 29.88 841 24.83 4.1 39.3 51 -5.2 22.6
05:15 1012 29.88 841 24.83 4.2 39.6 51 -5.1 22.8
05:20 1012 29.88 841 24.83 4.2 39.5 53 -4.5 23.8
05:25 1012 29.88 841 24.83 4 39.1 55 -4.2 24.4
05:30 1012 29.88 841 24.83 3.8 38.9 55 -4.4 24
05:35 1012 29.88 841 24.83 3.8 38.9 55 -4.4 24.1
05:40 1012 29.88 841 24.83 3.8 38.8 55 -4.5 23.8
05:45 1012 29.88 841 24.83 3.8 38.8 54 -4.7 23.6
05:50 1012 29.88 841 24.83 3.9 38.9 53 -4.9 23.1
05:55 1012 29.88 841 24.83 3.8 38.9 53 -4.8 23.3
06:00 1012 29.88 841 24.83 3.8 38.8 54 -4.7 23.5
06:05 1012 29.88 842 24.86 3.7 38.7 55 -4.5 24
06:10 1012 29.88 842 24.86 3.6 38.5 53 -5 23.1
06:15 1012 29.88 842 24.86 3.8 38.8 52 -5.2 22.6
06:20 1012 29.88 842 24.86 3.8 38.8 53 -4.8 23.3
06:25 1013 29.91 842 24.86 3.7 38.7 54 -4.8 23.4
06:30 1013 29.91 842 24.86 3.7 38.7 52 -5.3 22.5
06:35 1013 29.91 842 24.86 3.8 38.9 52 -5.1 22.9
06:40 1013 29.91 842 24.86 3.9 39 52 -5.1 22.9
06:45 1013 29.91 842 24.86 3.8 38.8 53 -5 23
06:50 1013 29.91 842 24.86 3.8 38.8 52 -5.1 22.9
06:55 1013 29.91 842 24.86 3.8 38.9 52 -5.1 22.8
07:00 1013 29.91 842 24.86 3.8 38.9 52 -5.1 22.8
07:05 1013 29.91 842 24.86 3.9 39.1 51 -5.2 22.6
07:10 1013 29.91 842 24.86 3.9 39 51 -5.2 22.6
07:15 1013 29.91 842 24.86 3.9 39 52 -5.1 22.9
07:20 1013 29.91 842 24.86 3.9 39.1 51 -5.3 22.5
07:25 1013 29.91 843 24.89 3.9 39.1 52 -5 23
07:30 1013 29.91 843 24.89 4 39.2 51 -5.3 22.4
07:35 1014 29.94 843 24.89 4.2 39.5 50 -5.4 22.4
07:40 1014 29.94 843 24.89 4.1 39.3 52 -4.9 23.2
07:45 1014 29.94 843 24.89 4 39.2 52 -4.9 23.2
07:50 1014 29.94 843 24.89 4 39.2 53 -4.8 23.3
07:55 1014 29.94 843 24.89 4 39.2 50 -5.5 22.1
08:00 1014 29.94 843 24.89 4.1 39.5 50 -5.2 22.6
08:05 1014 29.94 843 24.89 4.2 39.6 51 -5 23.1
08:10 1014 29.94 843 24.89 4.1 39.4 52 -4.9 23.2
08:15 1014 29.94 843 24.89 4.1 39.3 53 -4.8 23.4
08:20 1014 29.94 843 24.89 4.1 39.4 51 -5.1 22.9
08:25 1014 29.94 843 24.89 4.3 39.7 50 -5.2 22.6
08:30 1014 29.94 843 24.89 4.3 39.8 51 -5 23.1
08:35 1014 29.94 843 24.89 4.3 39.7 52 -4.8 23.3
08:40 1014 29.94 843 24.89 4.4 39.9 50 -5.2 22.6
08:45 1014 29.94 843 24.89 4.5 40.1 50 -4.9 23.2
08:50 1014 29.94 843 24.89 4.6 40.2 50 -5 23
08:55 1014 29.94 843 24.89 4.5 40.1 50 -5.1 22.7
09:00 1014 29.94 843 24.89 4.5 40.2 50 -4.9 23.1
09:05 1014 29.94 844 24.92 4.4 39.9 53 -4.5 24
09:10 1015 29.97 844 24.92 4.4 39.9 50 -5.2 22.6
09:15 1015 29.97 844 24.92 4.5 40.1 51 -4.9 23.2
09:20 1015 29.97 844 24.92 4.5 40.1 49 -5.2 22.7
09:25 1015 29.97 844 24.92 4.6 40.2 49 -5.1 22.8
09:30 1015 29.97 844 24.92 4.7 40.5 49 -5.1 22.8
09:35 1015 29.97 844 24.92 4.9 40.8 50 -4.7 23.5
09:40 1015 29.97 844 24.92 5 41 47 -5.4 22.3
09:45 1015 29.97 844 24.92 5.1 41.2 47 -5.4 22.3
09:50 1015 29.97 844 24.92 5.2 41.4 47 -5.2 22.6
09:55 1015 29.97 844 24.92 5.3 41.5 48 -4.9 23.2
10:00 1015 29.97 844 24.92 5.3 41.6 48 -4.9 23.3
10:05 1015 29.97 844 24.92 5.5 41.8 47 -5 23
10:10 1015 29.97 844 24.92 5.5 41.9 46 -5.2 22.7
10:15 1015 29.97 844 24.92 5.5 41.9 46 -5.1 22.8
10:20 1015 29.97 844 24.92 5.5 41.9 47 -4.8 23.3
10:25 1015 29.97 844 24.92 5.5 41.9 48 -4.7 23.5
10:30 1015 29.97 844 24.92 5.4 41.7 47 -5 23.1
10:35 1015 29.97 845 24.95 5.5 41.8 48 -4.8 23.4
10:40 1015 29.97 845 24.95 5.8 42.4 46 -5 23
10:45 1015 29.97 845 24.95 6.2 43.1 45 -5 23
10:50 1015 29.97 845 24.95 6.5 43.7 44 -4.9 23.2
10:55 1015 29.97 844 24.92 6.7 44.1 43 -4.9 23.1
11:00 1015 29.97 845 24.95 6.8 44.2 43 -4.8 23.4
11:05 1015 29.97 845 24.95 6.8 44.2 44 -4.6 23.6
11:10 1015 29.97 845 24.95 7.2 44.9 41 -5.3 22.5
11:15 1016 30 845 24.95 7 44.6 42 -5.1 22.9
11:20 1016 30 845 24.95 7 44.6 41 -5.2 22.6
11:25 1016 30 845 24.95 7.1 44.8 42 -5 23
11:30 1016 30 845 24.95 7.3 45.1 41 -5.1 22.8
11:35 1016 30 845 24.95 7.7 45.8 42 -4.5 24
11:40 1016 30 845 24.95 8.1 46.6 39 -4.8 23.3
11:45 1016 30 845 24.95 8.4 47.2 38 -5 22.9
11:50 1016 30 845 24.95 8.3 47 37 -5.4 22.2
11:55 1016 30 845 24.95 7.9 46.1 39 -5.3 22.4
12:00 1016 30 845 24.95 7.8 46.1 40 -5 22.9
12:05 1016 30 845 24.95 7.9 46.2 39 -5 22.9
12:10 1016 30 845 24.95 8.1 46.5 39 -5.2 22.6
12:15 1016 30 845 24.95 8.1 46.5 38 -5.3 22.5
12:20 1016 30 845 24.95 7.8 46.1 39 -5.3 22.5
12:25 1016 30 845 24.95 7.7 45.9 40 -4.9 23.1
12:30 1016 30 845 24.95 7.9 46.2 41 -4.7 23.6
12:35 1016 30 845 24.95 8.3 47 39 -4.9 23.2
12:40 1016 30 845 24.95 8.1 46.6 39 -5 23
12:45 1016 30 845 24.95 8.1 46.6 38 -5.4 22.3
12:50 1016 30 845 24.95 8.4 47.2 39 -4.6 23.8
12:55 1016 30 845 24.95 9.2 48.5 38 -4.5 23.9
13:00 1016 30 845 24.95 9.1 48.3 40 -3.9 25
13:05 1016 30 845 24.95 9.1 48.4 39 -4.2 24.5
13:10 1016 30 845 24.95 9.3 48.7 35 -5.3 22.5
13:15 1016 30 845 24.95 9.7 49.4 36 -4.6 23.6
13:20 1016 30 845 24.95 9.6 49.3 35 -5 22.9
13:25 1016 30 845 24.95 9.3 48.8 37 -4.5 24
13:30 1016 30 845 24.95 9.7 49.5 34 -5.3 22.4
13:35 1016 30 845 24.95 10 50.1 36 -4.5 23.9
13:40 1016 30 845 24.95 9.7 49.5 36 -4.6 23.6
13:45 1016 30 845 24.95 9.2 48.5 36 -5.2 22.7
13:50 1016 30 846 24.98 9.6 49.2 36 -4.9 23.3
13:55 1016 30 846 24.98 9.7 49.5 35 -4.8 23.3
14:00 1016 30 846 24.98 9.9 49.7 37 -4.2 24.4
14:05 1016 30 846 24.98 9.7 49.4 35 -4.9 23.2
14:10 1017 30.03 846 24.98 9.5 49.2 36 -4.9 23.2
14:15 1017 30.03 846 24.98 10.1 50.2 33 -5.2 22.6
14:20 1017 30.03 846 24.98 10.1 50.3 34 -5.1 22.8
14:25 1017 30.03 846 24.98 9.9 49.8 35 -4.8 23.3
14:30 1017 30.03 846 24.98 9.9 49.8 32 -5.9 21.4
14:35 1017 30.03 846 24.98 9.7 49.5 34 -5.4 22.2
14:40 1017 30.03 846 24.98 9.7 49.5 35 -5 23
14:45 1017 30.03 846 24.98 9.8 49.7 34 -5.3 22.5
14:50 1017 30.03 846 24.98 9.8 49.6 35 -5 23
14:55 1017 30.03 846 24.98 10 50.1 32 -5.9 21.3
15:00 1017 30.03 846 24.98 10 50 32 -6 21.2
15:05 1017 30.03 846 24.98 9.9 49.8 32 -6.2 20.9
15:10 1017 30.03 846 24.98 9.9 49.8 34 -5.3 22.4
15:15 1017 30.03 846 24.98 10.3 50.5 33 -5.3 22.5
15:20 1017 30.03 846 24.98 10.4 50.6 32 -5.7 21.8
15:25 1017 30.03 846 24.98 10.5 51 33 -5.2 22.6
15:30 1017 30.03 846 24.98 10.6 51.2 32 -5.5 22.1
15:35 1017 30.03 846 24.98 10.4 50.7 33 -5.1 22.7
15:40 1017 30.03 846 24.98 10.7 51.2 31 -5.7 21.7
15:45 1017 30.03 846 24.98 10.6 51.1 34 -4.7 23.6
15:50 1017 30.03 846 24.98 10.7 51.3 32 -5.3 22.4
15:55 1017 30.03 846 24.98 11 51.7 32 -5.2 22.6
16:00 1017 30.03 846 24.98 10.9 51.6 32 -5.1 22.9
16:05 1017 30.03 846 24.98 11.3 52.3 30 -5.5 22.1
16:10 1017 30.03 846 24.98 10.9 51.6 31 -5.4 22.3
16:15 1017 30.03 846 24.98 10.8 51.4 32 -5.2 22.7
16:20 1017 30.03 846 24.98 10.8 51.5 31 -5.5 22
16:25 1017 30.03 846 24.98 11.1 52 33 -4.6 23.8
16:30 1017 30.03 846 24.98 11.6 52.9 30 -5.4 22.3
16:35 1017 30.03 846 24.98 11.6 52.9 31 -4.7 23.5
16:40 1017 30.03 846 24.98 11.7 53.1 31 -5 23
16:45 1017 30.03 846 24.98 12.2 53.9 31 -4.4 24.1
16:50 1017 30.03 846 24.98 12.3 54.1 29 -5.4 22.3
16:55 1017 30.03 846 24.98 12 53.5 30 -4.9 23.1
17:00 1017 30.03 846 24.98 11.2 52.2 31 -5.3 22.5
17:05 1017 30.03 846 24.98 11.2 52.2 31 -5 22.9
17:10 1017 30.03 846 24.98 11.7 53 29 -5.7 21.7
17:15 1017 30.03 846 24.98 11.2 52.2 32 -4.9 23.1
17:20 1017 30.03 846 24.98 11.8 53.2 32 -4.3 24.2
17:25 1017 30.03 846 24.98 12.2 54 30 -4.9 23.2
17:30 1017 30.03 846 24.98 12.2 54 30 -4.6 23.6
17:35 1017 30.03 846 24.98 12.1 53.7 29 -5.6 22
17:40 1017 30.03 847 25.01 11.6 52.9 30 -5.4 22.3
17:45 1017 30.03 847 25.01 11.4 52.6 30 -5.5 22.2
17:50 1017 30.03 847 25.01 11.6 52.9 30 -5.3 22.5
17:55 1017 30.03 847 25.01 11.4 52.6 30 -5.5 22
18:00 1017 30.03 847 25.01 11.4 52.6 31 -5.3 22.5
18:05 1018 30.06 847 25.01 11.4 52.5 30 -5.7 21.8
18:10 1018 30.06 847 25.01 11.6 52.8 29 -5.8 21.6
18:15 1018 30.06 847 25.01 11.4 52.5 30 -5.4 22.3
18:20 1018 30.06 847 25.01 11.2 52.2 32 -5 23
18:25 1018 30.06 847 25.01 11.4 52.6 30 -5.5 22.2
18:30 1018 30.06 847 25.01 11.3 52.3 33 -4.5 23.9
18:35 1018 30.06 847 25.01 11 51.8 31 -5.3 22.5
18:40 1018 30.06 847 25.01 10.9 51.6 31 -5.5 22.1
18:45 1018 30.06 847 25.01 10.9 51.6 31 -5.6 22
18:50 1018 30.06 847 25.01 10.8 51.4 32 -5.2 22.7
18:55 1018 30.06 847 25.01 10.8 51.5 31 -5.5 22.1
19:00 1018 30.06 847 25.01 10.8 51.4 31 -5.6 21.9
19:05 1018 30.06 847 25.01 10.7 51.2 33 -5.1 22.9
19:10 1018 30.06 847 25.01 10.7 51.2 32 -5.2 22.6
19:15 1018 30.06 847 25.01 10.5 51 34 -4.6 23.7
19:20 1018 30.06 847 25.01 10.5 50.8 36 -3.8 25.1
19:25 1018 30.06 847 25.01 10.5 50.9 36 -3.9 24.9
19:30 1018 30.06 847 25.01 10.4 50.7 36 -3.9 25
19:35 1018 30.06 847 25.01 10.2 50.4 37 -3.8 25.2
19:40 1018 30.06 847 25.01 10 50 38 -3.7 25.3
19:45 1018 30.06 847 25.01 9.7 49.5 38 -3.9 24.9
19:50 1018 30.06 847 25.01 9.5 49 39 -3.6 25.4
19:55 1018 30.06 847 25.01 9.4 48.9 38 -4.1 24.7
20:00 1018 30.06 847 25.01 9.3 48.7 39 -3.9 24.9
20:05 1018 30.06 847 25.01 9.2 48.5 39 -4.1 24.6
20:10 1018 30.06 848 25.04 9.1 48.3 39 -4 24.8
20:15 1018 30.06 848 25.04 8.9 48.1 40 -4 24.8
20:20 1018 30.06 848 25.04 8.8 47.8 40 -4 24.9
20:25 1019 30.09 848 25.04 8.7 47.6 41 -3.7 25.3
20:30 1019 30.09 848 25.04 8.6 47.5 42 -3.6 25.6
20:35 1019 30.09 848 25.04 8.6 47.5 43 -3.3 26.1
20:40 1019 30.09 848 25.04 8.6 47.5 44 -3 26.6
20:45 1019 30.09 848 25.04 8.4 47.2 46 -2.5 27.5
20:50 1019 30.09 848 25.04 7.8 46.1 48 -2.5 27.5
20:55 1019 30.09 848 25.04 7.1 44.8 50 -2.5 27.6
21:00 1019 30.09 848 25.04 6.9 44.4 52 -2.3 27.8
21:05 1019 30.09 848 25.04 6.8 44.3 53 -2 28.4
21:10 1019 30.09 849 25.07 6.7 44 54 -1.9 28.7
21:15 1019 30.09 849 25.07 6.7 44.1 54 -1.9 28.6
21:20 1020 30.12 849 25.07 6.7 44.1 55 -1.7 28.9
21:25 1020 30.12 849 25.07 6.7 44.1 55 -1.5 29.2
21:30 1020 30.12 849 25.07 6.6 44 57 -1.4 29.5
21:35 1020 30.12 849 25.07 6.5 43.8 57 -1.3 29.7
21:40 1020 30.12 849 25.07 6.2 43.2 59 -1.2 29.9
21:45 1020 30.12 849 25.07 5.1 41.2 62 -1.5 29.3
21:50 1020 30.12 849 25.07 4.9 40.8 62 -1.8 28.7
21:55 1020 30.12 849 25.07 4.7 40.5 63 -1.6 29.1
22:00 1020 30.12 849 25.07 4.5 40.1 64 -1.8 28.8
22:05 1020 30.12 850 25.1 4.4 39.9 63 -2 28.5
22:10 1020 30.12 850 25.1 4.5 40.1 63 -2 28.3
22:15 1020 30.12 850 25.1 4.6 40.3 62 -2 28.5
22:20 1021 30.15 850 25.1 4.4 40 64 -1.8 28.7
22:25 1021 30.15 850 25.1 4.2 39.5 65 -1.8 28.7
22:30 1021 30.15 850 25.1 4.1 39.4 64 -2.2 28.1
22:35 1021 30.15 850 25.1 4.1 39.4 64 -2 28.3
22:40 1021 30.15 850 25.1 3.8 38.8 66 -1.9 28.5
22:45 1021 30.15 850 25.1 3.5 38.4 67 -1.9 28.5
22:50 1021 30.15 850 25.1 3.4 38.2 66 -2.2 28
22:55 1021 30.15 850 25.1 3.5 38.2 66 -2.2 28
23:00 1021 30.15 850 25.1 3.6 38.4 66 -2.3 27.9
23:05 1021 30.15 850 25.1 3.6 38.4 66 -2.3 27.9
23:10 1021 30.15 850 25.1 3.7 38.7 65 -2.3 27.8
23:15 1021 30.15 850 25.1 4 39.3 64 -2.2 28
23:20 1021 30.15 850 25.1 3.8 38.9 64 -2.3 27.9
23:25 1021 30.15 850 25.1 3.6 38.4 65 -2.3 27.8
23:30 1021 30.15 850 25.1 3.1 37.5 68 -2.2 28
23:35 1021 30.15 850 25.1 2.7 36.8 68 -2.6 27.4
23:40 1021 30.15 850 25.1 2.7 36.9 67 -2.8 27
23:45 1021 30.15 850 25.1 2.9 37.3 66 -2.8 27
23:50 1021 30.15 850 25.1 3.1 37.6 65 -2.8 27
23:55 1021 30.15 850 25.1 3.2 37.8 64 -2.9 26.8
24:00 1021 30.15 850 25.1 3.4 38.1 64 -2.7 27.1